sensor_id;sensor_type;location;lat;lon;timestamp;P1;durP1;ratioP1;P2;durP2;ratioP2
5945;SDS011;2998;48.206;16.394;2022-10-16T00:01:28;7.13;;;5.87;;
5945;SDS011;2998;48.206;16.394;2022-10-16T00:03:58;6.30;;;5.80;;
5945;SDS011;2998;48.206;16.394;2022-10-16T00:06:28;5.43;;;5.13;;
5945;SDS011;2998;48.206;16.394;2022-10-16T00:08:56;6.83;;;6.23;;
5945;SDS011;2998;48.206;16.394;2022-10-16T00:11:27;12.43;;;6.03;;
5945;SDS011;2998;48.206;16.394;2022-10-16T00:13:57;7.30;;;5.50;;
5945;SDS011;2998;48.206;16.394;2022-10-16T00:16:27;9.00;;;6.10;;
5945;SDS011;2998;48.206;16.394;2022-10-16T00:18:55;5.83;;;5.30;;
5945;SDS011;2998;48.206;16.394;2022-10-16T00:21:24;5.27;;;4.80;;
5945;SDS011;2998;48.206;16.394;2022-10-16T00:23:56;5.00;;;4.70;;
5945;SDS011;2998;48.206;16.394;2022-10-16T00:26:25;7.07;;;6.30;;
5945;SDS011;2998;48.206;16.394;2022-10-16T00:28:54;11.03;;;6.93;;
5945;SDS011;2998;48.206;16.394;2022-10-16T00:31:22;6.70;;;6.20;;
5945;SDS011;2998;48.206;16.394;2022-10-16T00:33:51;13.63;;;6.20;;
5945;SDS011;2998;48.206;16.394;2022-10-16T00:36:20;8.00;;;5.60;;
5945;SDS011;2998;48.206;16.394;2022-10-16T00:38:50;7.23;;;6.63;;
5945;SDS011;2998;48.206;16.394;2022-10-16T00:41:24;11.30;;;6.90;;
5945;SDS011;2998;48.206;16.394;2022-10-16T00:43:52;10.13;;;5.50;;
5945;SDS011;2998;48.206;16.394;2022-10-16T00:46:22;5.27;;;4.87;;
5945;SDS011;2998;48.206;16.394;2022-10-16T00:48:51;5.33;;;4.90;;
5945;SDS011;2998;48.206;16.394;2022-10-16T00:51:23;6.10;;;5.27;;
5945;SDS011;2998;48.206;16.394;2022-10-16T00:53:53;8.40;;;5.57;;
5945;SDS011;2998;48.206;16.394;2022-10-16T00:56:23;5.63;;;5.10;;
5945;SDS011;2998;48.206;16.394;2022-10-16T00:58:51;9.60;;;4.90;;
5945;SDS011;2998;48.206;16.394;2022-10-16T01:01:19;10.10;;;4.97;;
5945;SDS011;2998;48.206;16.394;2022-10-16T01:03:47;5.30;;;4.80;;
5945;SDS011;2998;48.206;16.394;2022-10-16T01:06:20;10.50;;;4.40;;
5945;SDS011;2998;48.206;16.394;2022-10-16T01:09:08;5.10;;;4.60;;
5945;SDS011;2998;48.206;16.394;2022-10-16T01:11:44;5.83;;;4.23;;
5945;SDS011;2998;48.206;16.394;2022-10-16T01:14:19;3.73;;;3.43;;
5945;SDS011;2998;48.206;16.394;2022-10-16T01:16:52;4.00;;;3.80;;
5945;SDS011;2998;48.206;16.394;2022-10-16T01:19:26;4.67;;;4.27;;
5945;SDS011;2998;48.206;16.394;2022-10-16T01:22:04;5.07;;;4.67;;
5945;SDS011;2998;48.206;16.394;2022-10-16T01:24:37;5.20;;;3.70;;
5945;SDS011;2998;48.206;16.394;2022-10-16T01:27:09;5.37;;;3.87;;
5945;SDS011;2998;48.206;16.394;2022-10-16T01:29:39;5.43;;;3.57;;
5945;SDS011;2998;48.206;16.394;2022-10-16T01:32:10;7.47;;;4.80;;
5945;SDS011;2998;48.206;16.394;2022-10-16T01:34:45;8.73;;;5.30;;
5945;SDS011;2998;48.206;16.394;2022-10-16T01:37:17;4.20;;;3.90;;
5945;SDS011;2998;48.206;16.394;2022-10-16T01:39:49;4.00;;;3.30;;
5945;SDS011;2998;48.206;16.394;2022-10-16T01:42:20;4.37;;;3.80;;
5945;SDS011;2998;48.206;16.394;2022-10-16T01:44:50;5.20;;;4.27;;
5945;SDS011;2998;48.206;16.394;2022-10-16T01:47:18;4.33;;;3.80;;
5945;SDS011;2998;48.206;16.394;2022-10-16T01:49:50;4.83;;;4.03;;
5945;SDS011;2998;48.206;16.394;2022-10-16T01:52:19;4.37;;;3.77;;
5945;SDS011;2998;48.206;16.394;2022-10-16T01:54:50;5.13;;;4.37;;
5945;SDS011;2998;48.206;16.394;2022-10-16T01:57:21;4.03;;;3.73;;
5945;SDS011;2998;48.206;16.394;2022-10-16T01:59:52;7.37;;;4.20;;
5945;SDS011;2998;48.206;16.394;2022-10-16T02:02:23;4.07;;;3.67;;
5945;SDS011;2998;48.206;16.394;2022-10-16T02:04:57;4.23;;;3.93;;
5945;SDS011;2998;48.206;16.394;2022-10-16T02:07:26;3.73;;;3.53;;
5945;SDS011;2998;48.206;16.394;2022-10-16T02:09:54;4.80;;;3.83;;
5945;SDS011;2998;48.206;16.394;2022-10-16T02:12:25;4.20;;;3.93;;
5945;SDS011;2998;48.206;16.394;2022-10-16T02:14:55;3.33;;;3.13;;
5945;SDS011;2998;48.206;16.394;2022-10-16T02:17:23;3.77;;;3.47;;
5945;SDS011;2998;48.206;16.394;2022-10-16T02:19:52;7.30;;;4.10;;
5945;SDS011;2998;48.206;16.394;2022-10-16T02:22:22;10.07;;;4.97;;
5945;SDS011;2998;48.206;16.394;2022-10-16T02:24:54;7.40;;;4.40;;
5945;SDS011;2998;48.206;16.394;2022-10-16T02:27:27;4.80;;;3.87;;
5945;SDS011;2998;48.206;16.394;2022-10-16T02:30:00;6.60;;;5.10;;
5945;SDS011;2998;48.206;16.394;2022-10-16T02:32:34;4.17;;;3.73;;
5945;SDS011;2998;48.206;16.394;2022-10-16T02:35:05;6.17;;;3.90;;
5945;SDS011;2998;48.206;16.394;2022-10-16T02:37:34;4.60;;;3.50;;
5945;SDS011;2998;48.206;16.394;2022-10-16T02:40:02;4.60;;;4.20;;
5945;SDS011;2998;48.206;16.394;2022-10-16T02:42:34;3.67;;;3.37;;
5945;SDS011;2998;48.206;16.394;2022-10-16T02:45:02;7.63;;;4.40;;
5945;SDS011;2998;48.206;16.394;2022-10-16T02:47:31;4.90;;;4.27;;
5945;SDS011;2998;48.206;16.394;2022-10-16T02:49:59;5.87;;;4.67;;
5945;SDS011;2998;48.206;16.394;2022-10-16T02:52:27;7.40;;;5.73;;
5945;SDS011;2998;48.206;16.394;2022-10-16T02:54:55;8.23;;;5.77;;
5945;SDS011;2998;48.206;16.394;2022-10-16T02:57:23;9.77;;;6.83;;
5945;SDS011;2998;48.206;16.394;2022-10-16T02:59:53;10.80;;;8.10;;
5945;SDS011;2998;48.206;16.394;2022-10-16T03:02:21;11.00;;;9.37;;
5945;SDS011;2998;48.206;16.394;2022-10-16T03:04:49;13.73;;;10.70;;
5945;SDS011;2998;48.206;16.394;2022-10-16T03:07:17;16.97;;;13.40;;
5945;SDS011;2998;48.206;16.394;2022-10-16T03:09:44;14.40;;;12.47;;
5945;SDS011;2998;48.206;16.394;2022-10-16T03:12:12;19.23;;;13.43;;
5945;SDS011;2998;48.206;16.394;2022-10-16T03:14:40;14.40;;;9.43;;
5945;SDS011;2998;48.206;16.394;2022-10-16T03:17:10;9.30;;;7.07;;
5945;SDS011;2998;48.206;16.394;2022-10-16T03:19:39;10.73;;;9.00;;
5945;SDS011;2998;48.206;16.394;2022-10-16T03:22:07;9.27;;;8.37;;
5945;SDS011;2998;48.206;16.394;2022-10-16T03:24:35;9.10;;;7.53;;
5945;SDS011;2998;48.206;16.394;2022-10-16T03:27:03;8.30;;;7.40;;
5945;SDS011;2998;48.206;16.394;2022-10-16T03:29:30;11.93;;;7.00;;
5945;SDS011;2998;48.206;16.394;2022-10-16T03:31:59;7.23;;;6.60;;
5945;SDS011;2998;48.206;16.394;2022-10-16T03:34:29;8.73;;;7.17;;
5945;SDS011;2998;48.206;16.394;2022-10-16T03:36:56;7.60;;;6.70;;
5945;SDS011;2998;48.206;16.394;2022-10-16T03:39:24;9.37;;;6.57;;
5945;SDS011;2998;48.206;16.394;2022-10-16T03:41:53;6.97;;;6.27;;
5945;SDS011;2998;48.206;16.394;2022-10-16T03:44:21;7.83;;;6.03;;
5945;SDS011;2998;48.206;16.394;2022-10-16T03:46:49;6.47;;;5.90;;
5945;SDS011;2998;48.206;16.394;2022-10-16T03:49:17;6.23;;;5.73;;
5945;SDS011;2998;48.206;16.394;2022-10-16T03:51:46;7.47;;;5.47;;
5945;SDS011;2998;48.206;16.394;2022-10-16T03:54:14;7.60;;;4.97;;
5945;SDS011;2998;48.206;16.394;2022-10-16T03:56:42;6.60;;;4.97;;
5945;SDS011;2998;48.206;16.394;2022-10-16T03:59:10;6.37;;;5.77;;
5945;SDS011;2998;48.206;16.394;2022-10-16T04:01:38;6.20;;;4.40;;
5945;SDS011;2998;48.206;16.394;2022-10-16T04:04:06;9.30;;;5.47;;
5945;SDS011;2998;48.206;16.394;2022-10-16T04:06:33;4.70;;;4.40;;
5945;SDS011;2998;48.206;16.394;2022-10-16T04:09:03;4.87;;;4.47;;
5945;SDS011;2998;48.206;16.394;2022-10-16T04:11:31;14.30;;;5.77;;
5945;SDS011;2998;48.206;16.394;2022-10-16T04:13:59;5.77;;;5.33;;
5945;SDS011;2998;48.206;16.394;2022-10-16T04:16:27;5.37;;;4.97;;
5945;SDS011;2998;48.206;16.394;2022-10-16T04:18:55;3.97;;;3.73;;
5945;SDS011;2998;48.206;16.394;2022-10-16T04:21:23;3.77;;;3.67;;
5945;SDS011;2998;48.206;16.394;2022-10-16T04:23:51;11.50;;;4.17;;
5945;SDS011;2998;48.206;16.394;2022-10-16T04:26:20;5.83;;;4.60;;
5945;SDS011;2998;48.206;16.394;2022-10-16T04:28:48;8.33;;;5.90;;
5945;SDS011;2998;48.206;16.394;2022-10-16T04:31:16;5.20;;;4.47;;
5945;SDS011;2998;48.206;16.394;2022-10-16T04:33:44;5.50;;;4.77;;
5945;SDS011;2998;48.206;16.394;2022-10-16T04:36:12;4.03;;;3.63;;
5945;SDS011;2998;48.206;16.394;2022-10-16T04:38:40;4.03;;;3.63;;
5945;SDS011;2998;48.206;16.394;2022-10-16T04:41:08;4.17;;;3.83;;
5945;SDS011;2998;48.206;16.394;2022-10-16T04:43:37;5.33;;;3.40;;
5945;SDS011;2998;48.206;16.394;2022-10-16T04:46:05;3.97;;;3.67;;
5945;SDS011;2998;48.206;16.394;2022-10-16T04:48:33;3.80;;;3.50;;
5945;SDS011;2998;48.206;16.394;2022-10-16T04:51:01;8.03;;;5.27;;
5945;SDS011;2998;48.206;16.394;2022-10-16T04:53:29;3.83;;;3.53;;
5945;SDS011;2998;48.206;16.394;2022-10-16T04:55:57;3.70;;;3.50;;
5945;SDS011;2998;48.206;16.394;2022-10-16T04:58:25;5.07;;;4.77;;
5945;SDS011;2998;48.206;16.394;2022-10-16T05:00:54;8.20;;;3.77;;
5945;SDS011;2998;48.206;16.394;2022-10-16T05:03:22;7.63;;;4.23;;
5945;SDS011;2998;48.206;16.394;2022-10-16T05:05:50;4.00;;;3.80;;
5945;SDS011;2998;48.206;16.394;2022-10-16T05:08:18;6.93;;;3.97;;
5945;SDS011;2998;48.206;16.394;2022-10-16T05:10:46;9.33;;;4.07;;
5945;SDS011;2998;48.206;16.394;2022-10-16T05:13:14;7.77;;;5.23;;
5945;SDS011;2998;48.206;16.394;2022-10-16T05:15:46;8.90;;;5.70;;
5945;SDS011;2998;48.206;16.394;2022-10-16T05:18:15;6.43;;;5.83;;
5945;SDS011;2998;48.206;16.394;2022-10-16T05:20:44;4.90;;;4.60;;
5945;SDS011;2998;48.206;16.394;2022-10-16T05:23:11;5.70;;;5.00;;
5945;SDS011;2998;48.206;16.394;2022-10-16T05:25:39;5.20;;;4.30;;
5945;SDS011;2998;48.206;16.394;2022-10-16T05:28:07;8.70;;;4.10;;
5945;SDS011;2998;48.206;16.394;2022-10-16T05:30:36;4.63;;;4.33;;
5945;SDS011;2998;48.206;16.394;2022-10-16T05:33:04;6.17;;;5.73;;
5945;SDS011;2998;48.206;16.394;2022-10-16T05:35:34;6.07;;;5.67;;
5945;SDS011;2998;48.206;16.394;2022-10-16T05:38:02;7.33;;;6.23;;
5945;SDS011;2998;48.206;16.394;2022-10-16T05:40:29;7.03;;;6.53;;
5945;SDS011;2998;48.206;16.394;2022-10-16T05:42:57;6.73;;;6.20;;
5945;SDS011;2998;48.206;16.394;2022-10-16T05:45:25;6.83;;;6.33;;
5945;SDS011;2998;48.206;16.394;2022-10-16T05:47:53;9.10;;;8.30;;
5945;SDS011;2998;48.206;16.394;2022-10-16T05:50:21;11.27;;;10.10;;
5945;SDS011;2998;48.206;16.394;2022-10-16T05:52:50;10.90;;;9.17;;
5945;SDS011;2998;48.206;16.394;2022-10-16T05:55:18;16.00;;;12.50;;
5945;SDS011;2998;48.206;16.394;2022-10-16T05:57:46;11.20;;;8.30;;
5945;SDS011;2998;48.206;16.394;2022-10-16T06:00:14;12.73;;;7.53;;
5945;SDS011;2998;48.206;16.394;2022-10-16T06:02:42;11.87;;;10.77;;
5945;SDS011;2998;48.206;16.394;2022-10-16T06:05:10;10.53;;;8.10;;
5945;SDS011;2998;48.206;16.394;2022-10-16T06:07:38;4.60;;;4.30;;
5945;SDS011;2998;48.206;16.394;2022-10-16T06:10:08;26.57;;;19.57;;
5945;SDS011;2998;48.206;16.394;2022-10-16T06:12:36;9.53;;;7.80;;
5945;SDS011;2998;48.206;16.394;2022-10-16T06:15:04;18.67;;;14.57;;
5945;SDS011;2998;48.206;16.394;2022-10-16T06:17:32;15.50;;;11.83;;
5945;SDS011;2998;48.206;16.394;2022-10-16T06:20:00;15.50;;;11.07;;
5945;SDS011;2998;48.206;16.394;2022-10-16T06:22:28;8.77;;;7.87;;
5945;SDS011;2998;48.206;16.394;2022-10-16T06:24:56;8.30;;;6.80;;
5945;SDS011;2998;48.206;16.394;2022-10-16T06:27:25;9.27;;;7.57;;
5945;SDS011;2998;48.206;16.394;2022-10-16T06:29:53;13.33;;;11.17;;
5945;SDS011;2998;48.206;16.394;2022-10-16T06:32:21;15.50;;;12.00;;
5945;SDS011;2998;48.206;16.394;2022-10-16T06:34:49;13.80;;;10.60;;
5945;SDS011;2998;48.206;16.394;2022-10-16T06:37:17;16.83;;;11.00;;
5945;SDS011;2998;48.206;16.394;2022-10-16T06:39:45;15.97;;;11.37;;
5945;SDS011;2998;48.206;16.394;2022-10-16T06:42:13;25.00;;;10.70;;
5945;SDS011;2998;48.206;16.394;2022-10-16T06:44:43;30.80;;;15.20;;
5945;SDS011;2998;48.206;16.394;2022-10-16T06:47:11;10.17;;;6.83;;
5945;SDS011;2998;48.206;16.394;2022-10-16T06:49:39;4.43;;;3.80;;
5945;SDS011;2998;48.206;16.394;2022-10-16T06:52:06;3.77;;;3.50;;
5945;SDS011;2998;48.206;16.394;2022-10-16T06:54:34;10.20;;;4.90;;
5945;SDS011;2998;48.206;16.394;2022-10-16T06:57:08;16.67;;;6.30;;
5945;SDS011;2998;48.206;16.394;2022-10-16T06:59:35;13.27;;;6.80;;
5945;SDS011;2998;48.206;16.394;2022-10-16T07:02:05;12.73;;;5.90;;
5945;SDS011;2998;48.206;16.394;2022-10-16T07:04:35;3.97;;;3.57;;
5945;SDS011;2998;48.206;16.394;2022-10-16T07:07:03;3.03;;;2.83;;
5945;SDS011;2998;48.206;16.394;2022-10-16T07:09:34;5.00;;;2.70;;
5945;SDS011;2998;48.206;16.394;2022-10-16T07:12:02;5.30;;;2.93;;
5945;SDS011;2998;48.206;16.394;2022-10-16T07:14:31;3.10;;;3.00;;
5945;SDS011;2998;48.206;16.394;2022-10-16T07:16:59;2.57;;;2.43;;
5945;SDS011;2998;48.206;16.394;2022-10-16T07:19:28;2.33;;;2.13;;
5945;SDS011;2998;48.206;16.394;2022-10-16T07:22:00;2.10;;;2.00;;
5945;SDS011;2998;48.206;16.394;2022-10-16T07:24:28;2.30;;;2.20;;
5945;SDS011;2998;48.206;16.394;2022-10-16T07:26:56;2.30;;;2.20;;
5945;SDS011;2998;48.206;16.394;2022-10-16T07:29:23;1.70;;;1.60;;
5945;SDS011;2998;48.206;16.394;2022-10-16T07:31:51;5.40;;;1.93;;
5945;SDS011;2998;48.206;16.394;2022-10-16T07:34:21;2.33;;;2.13;;
5945;SDS011;2998;48.206;16.394;2022-10-16T07:36:50;4.07;;;2.63;;
5945;SDS011;2998;48.206;16.394;2022-10-16T07:39:18;4.33;;;2.97;;
5945;SDS011;2998;48.206;16.394;2022-10-16T07:41:46;2.10;;;1.60;;
5945;SDS011;2998;48.206;16.394;2022-10-16T07:44:15;2.33;;;1.20;;
5945;SDS011;2998;48.206;16.394;2022-10-16T07:46:43;1.00;;;1.00;;
5945;SDS011;2998;48.206;16.394;2022-10-16T07:49:11;4.77;;;1.70;;
5945;SDS011;2998;48.206;16.394;2022-10-16T07:51:39;1.00;;;0.97;;
5945;SDS011;2998;48.206;16.394;2022-10-16T07:54:09;3.40;;;1.23;;
5945;SDS011;2998;48.206;16.394;2022-10-16T07:56:37;1.13;;;1.13;;
5945;SDS011;2998;48.206;16.394;2022-10-16T07:59:09;4.73;;;1.30;;
5945;SDS011;2998;48.206;16.394;2022-10-16T08:01:37;1.50;;;1.40;;
5945;SDS011;2998;48.206;16.394;2022-10-16T08:04:05;2.07;;;1.33;;
5945;SDS011;2998;48.206;16.394;2022-10-16T08:06:34;3.53;;;1.30;;
5945;SDS011;2998;48.206;16.394;2022-10-16T08:09:03;1.10;;;1.10;;
5945;SDS011;2998;48.206;16.394;2022-10-16T08:11:33;4.20;;;1.57;;
5945;SDS011;2998;48.206;16.394;2022-10-16T08:14:01;2.80;;;1.50;;
5945;SDS011;2998;48.206;16.394;2022-10-16T08:16:29;3.37;;;1.27;;
5945;SDS011;2998;48.206;16.394;2022-10-16T08:18:57;1.30;;;1.20;;
5945;SDS011;2998;48.206;16.394;2022-10-16T08:21:25;6.00;;;1.97;;
5945;SDS011;2998;48.206;16.394;2022-10-16T08:23:53;1.57;;;1.40;;
5945;SDS011;2998;48.206;16.394;2022-10-16T08:26:24;6.93;;;1.70;;
5945;SDS011;2998;48.206;16.394;2022-10-16T08:28:54;5.63;;;1.20;;
5945;SDS011;2998;48.206;16.394;2022-10-16T08:31:23;2.53;;;1.60;;
5945;SDS011;2998;48.206;16.394;2022-10-16T08:33:52;1.47;;;1.20;;
5945;SDS011;2998;48.206;16.394;2022-10-16T08:36:20;1.20;;;1.10;;
5945;SDS011;2998;48.206;16.394;2022-10-16T08:38:48;2.07;;;0.77;;
5945;SDS011;2998;48.206;16.394;2022-10-16T08:47:25;1.10;;;1.00;;
5945;SDS011;2998;48.206;16.394;2022-10-16T08:49:55;2.33;;;1.37;;
5945;SDS011;2998;48.206;16.394;2022-10-16T08:52:25;1.40;;;1.23;;
5945;SDS011;2998;48.206;16.394;2022-10-16T08:54:56;2.27;;;1.20;;
5945;SDS011;2998;48.206;16.394;2022-10-16T08:57:25;1.30;;;1.20;;
5945;SDS011;2998;48.206;16.394;2022-10-16T08:59:55;1.40;;;1.10;;
5945;SDS011;2998;48.206;16.394;2022-10-16T09:02:28;1.70;;;1.00;;
5945;SDS011;2998;48.206;16.394;2022-10-16T09:05:02;2.07;;;1.30;;
5945;SDS011;2998;48.206;16.394;2022-10-16T09:07:47;2.23;;;1.90;;
5945;SDS011;2998;48.206;16.394;2022-10-16T09:10:22;1.60;;;1.50;;
5945;SDS011;2998;48.206;16.394;2022-10-16T09:13:02;1.77;;;1.67;;
5945;SDS011;2998;48.206;16.394;2022-10-16T09:15:42;2.30;;;1.60;;
5945;SDS011;2998;48.206;16.394;2022-10-16T09:18:15;7.13;;;1.40;;
5945;SDS011;2998;48.206;16.394;2022-10-16T09:20:49;1.30;;;1.20;;
5945;SDS011;2998;48.206;16.394;2022-10-16T09:23:19;2.00;;;1.63;;
5945;SDS011;2998;48.206;16.394;2022-10-16T09:25:49;1.60;;;1.50;;
5945;SDS011;2998;48.206;16.394;2022-10-16T09:28:18;4.40;;;1.70;;
5945;SDS011;2998;48.206;16.394;2022-10-16T09:30:47;3.73;;;1.57;;
5945;SDS011;2998;48.206;16.394;2022-10-16T09:33:17;1.67;;;1.50;;
5945;SDS011;2998;48.206;16.394;2022-10-16T09:35:47;4.50;;;1.73;;
5945;SDS011;2998;48.206;16.394;2022-10-16T09:38:24;4.50;;;1.40;;
5945;SDS011;2998;48.206;16.394;2022-10-16T09:40:54;5.03;;;1.80;;
5945;SDS011;2998;48.206;16.394;2022-10-16T09:43:28;3.13;;;1.90;;
5945;SDS011;2998;48.206;16.394;2022-10-16T09:46:03;1.60;;;1.50;;
5945;SDS011;2998;48.206;16.394;2022-10-16T09:48:33;1.33;;;1.23;;
5945;SDS011;2998;48.206;16.394;2022-10-16T09:51:04;1.57;;;1.47;;
5945;SDS011;2998;48.206;16.394;2022-10-16T09:53:38;3.30;;;1.87;;
5945;SDS011;2998;48.206;16.394;2022-10-16T09:56:09;2.40;;;1.37;;
5945;SDS011;2998;48.206;16.394;2022-10-16T09:58:42;2.23;;;1.73;;
5945;SDS011;2998;48.206;16.394;2022-10-16T10:01:14;2.80;;;1.70;;
5945;SDS011;2998;48.206;16.394;2022-10-16T10:03:43;5.00;;;1.60;;
5945;SDS011;2998;48.206;16.394;2022-10-16T10:06:16;8.13;;;1.83;;
5945;SDS011;2998;48.206;16.394;2022-10-16T10:08:53;3.67;;;1.40;;
5945;SDS011;2998;48.206;16.394;2022-10-16T10:11:44;1.53;;;1.43;;
5945;SDS011;2998;48.206;16.394;2022-10-16T10:14:19;1.50;;;1.40;;
5945;SDS011;2998;48.206;16.394;2022-10-16T10:16:50;2.27;;;1.10;;
5945;SDS011;2998;48.206;16.394;2022-10-16T10:19:20;2.23;;;1.70;;
5945;SDS011;2998;48.206;16.394;2022-10-16T10:21:49;1.60;;;1.50;;
5945;SDS011;2998;48.206;16.394;2022-10-16T10:24:18;2.90;;;1.30;;
5945;SDS011;2998;48.206;16.394;2022-10-16T10:26:48;1.57;;;1.03;;
5945;SDS011;2998;48.206;16.394;2022-10-16T10:29:21;2.00;;;1.57;;
5945;SDS011;2998;48.206;16.394;2022-10-16T10:31:58;2.53;;;1.63;;
5945;SDS011;2998;48.206;16.394;2022-10-16T10:34:37;2.13;;;1.30;;
5945;SDS011;2998;48.206;16.394;2022-10-16T10:37:22;1.40;;;1.30;;
5945;SDS011;2998;48.206;16.394;2022-10-16T10:40:07;1.80;;;1.70;;
5945;SDS011;2998;48.206;16.394;2022-10-16T10:42:41;3.80;;;1.23;;
5945;SDS011;2998;48.206;16.394;2022-10-16T10:45:22;1.43;;;1.33;;
5945;SDS011;2998;48.206;16.394;2022-10-16T10:48:05;1.50;;;1.40;;
5945;SDS011;2998;48.206;16.394;2022-10-16T10:50:43;3.60;;;1.23;;
5945;SDS011;2998;48.206;16.394;2022-10-16T10:53:18;6.33;;;1.27;;
5945;SDS011;2998;48.206;16.394;2022-10-16T10:55:50;2.10;;;0.90;;
5945;SDS011;2998;48.206;16.394;2022-10-16T11:01:31;2.30;;;2.20;;
5945;SDS011;2998;48.206;16.394;2022-10-16T11:04:16;5.07;;;1.10;;
5945;SDS011;2998;48.206;16.394;2022-10-16T11:06:52;1.47;;;1.37;;
5945;SDS011;2998;48.206;16.394;2022-10-16T11:09:23;1.43;;;1.37;;
5945;SDS011;2998;48.206;16.394;2022-10-16T11:11:53;1.30;;;1.30;;
5945;SDS011;2998;48.206;16.394;2022-10-16T11:14:23;1.40;;;1.30;;
5945;SDS011;2998;48.206;16.394;2022-10-16T11:16:54;2.30;;;1.20;;
5945;SDS011;2998;48.206;16.394;2022-10-16T11:19:31;1.97;;;1.47;;
5945;SDS011;2998;48.206;16.394;2022-10-16T11:22:04;4.60;;;1.30;;
5945;SDS011;2998;48.206;16.394;2022-10-16T11:24:35;2.47;;;1.33;;
5945;SDS011;2998;48.206;16.394;2022-10-16T11:27:09;1.33;;;0.93;;
5945;SDS011;2998;48.206;16.394;2022-10-16T11:29:43;1.27;;;1.17;;
5945;SDS011;2998;48.206;16.394;2022-10-16T11:32:18;0.90;;;0.90;;
5945;SDS011;2998;48.206;16.394;2022-10-16T11:34:51;7.17;;;1.13;;
5945;SDS011;2998;48.206;16.394;2022-10-16T11:37:20;0.80;;;0.80;;
5945;SDS011;2998;48.206;16.394;2022-10-16T11:39:52;0.80;;;0.77;;
5945;SDS011;2998;48.206;16.394;2022-10-16T11:42:25;3.20;;;1.10;;
5945;SDS011;2998;48.206;16.394;2022-10-16T11:45:00;1.20;;;1.10;;
5945;SDS011;2998;48.206;16.394;2022-10-16T11:47:33;4.43;;;0.77;;
5945;SDS011;2998;48.206;16.394;2022-10-16T11:50:24;0.90;;;0.90;;
5945;SDS011;2998;48.206;16.394;2022-10-16T11:52:55;1.43;;;1.33;;
5945;SDS011;2998;48.206;16.394;2022-10-16T11:55:30;0.90;;;0.80;;
5945;SDS011;2998;48.206;16.394;2022-10-16T11:58:00;0.93;;;0.93;;
5945;SDS011;2998;48.206;16.394;2022-10-16T12:00:35;1.10;;;0.97;;
5945;SDS011;2998;48.206;16.394;2022-10-16T12:03:10;0.80;;;0.80;;
5945;SDS011;2998;48.206;16.394;2022-10-16T12:05:50;2.23;;;0.80;;
5945;SDS011;2998;48.206;16.394;2022-10-16T12:08:23;0.80;;;0.80;;
5945;SDS011;2998;48.206;16.394;2022-10-16T12:10:51;1.93;;;0.77;;
5945;SDS011;2998;48.206;16.394;2022-10-16T12:13:29;1.00;;;0.70;;
5945;SDS011;2998;48.206;16.394;2022-10-16T12:16:19;0.60;;;0.60;;
5945;SDS011;2998;48.206;16.394;2022-10-16T12:18:48;0.77;;;0.63;;
5945;SDS011;2998;48.206;16.394;2022-10-16T12:21:18;0.70;;;0.63;;
5945;SDS011;2998;48.206;16.394;2022-10-16T12:23:58;0.80;;;0.63;;
5945;SDS011;2998;48.206;16.394;2022-10-16T12:26:26;3.00;;;0.80;;
5945;SDS011;2998;48.206;16.394;2022-10-16T12:29:12;0.67;;;0.60;;
5945;SDS011;2998;48.206;16.394;2022-10-16T12:31:43;1.00;;;0.60;;
5945;SDS011;2998;48.206;16.394;2022-10-16T12:34:24;5.30;;;0.67;;
5945;SDS011;2998;48.206;16.394;2022-10-16T12:36:56;0.90;;;0.40;;
5945;SDS011;2998;48.206;16.394;2022-10-16T12:39:36;2.97;;;0.70;;
5945;SDS011;2998;48.206;16.394;2022-10-16T12:42:05;1.90;;;0.50;;
5945;SDS011;2998;48.206;16.394;2022-10-16T12:44:45;1.20;;;0.80;;
5945;SDS011;2998;48.206;16.394;2022-10-16T12:47:18;2.30;;;1.10;;
5945;SDS011;2998;48.206;16.394;2022-10-16T12:49:49;0.80;;;0.80;;
5945;SDS011;2998;48.206;16.394;2022-10-16T12:52:27;1.90;;;0.60;;
5945;SDS011;2998;48.206;16.394;2022-10-16T12:54:56;2.57;;;1.27;;
5945;SDS011;2998;48.206;16.394;2022-10-16T12:57:30;6.50;;;1.80;;
5945;SDS011;2998;48.206;16.394;2022-10-16T13:00:06;3.20;;;1.57;;
5945;SDS011;2998;48.206;16.394;2022-10-16T13:02:58;2.10;;;1.80;;
5945;SDS011;2998;48.206;16.394;2022-10-16T13:05:50;14.53;;;4.90;;
5945;SDS011;2998;48.206;16.394;2022-10-16T13:08:35;2.27;;;0.87;;
5945;SDS011;2998;48.206;16.394;2022-10-16T13:11:11;2.10;;;0.70;;
5945;SDS011;2998;48.206;16.394;2022-10-16T13:13:47;4.00;;;0.90;;
5945;SDS011;2998;48.206;16.394;2022-10-16T13:16:22;0.77;;;0.70;;
5945;SDS011;2998;48.206;16.394;2022-10-16T13:18:57;1.43;;;1.07;;
5945;SDS011;2998;48.206;16.394;2022-10-16T13:21:33;0.90;;;0.90;;
5945;SDS011;2998;48.206;16.394;2022-10-16T13:24:11;1.43;;;0.80;;
5945;SDS011;2998;48.206;16.394;2022-10-16T13:26:46;5.10;;;2.30;;
5945;SDS011;2998;48.206;16.394;2022-10-16T13:29:18;3.80;;;1.70;;
5945;SDS011;2998;48.206;16.394;2022-10-16T13:31:46;2.40;;;0.97;;
5945;SDS011;2998;48.206;16.394;2022-10-16T13:34:15;1.43;;;1.33;;
5945;SDS011;2998;48.206;16.394;2022-10-16T13:36:46;1.70;;;1.60;;
5945;SDS011;2998;48.206;16.394;2022-10-16T13:39:22;1.77;;;1.07;;
5945;SDS011;2998;48.206;16.394;2022-10-16T13:42:00;5.03;;;2.00;;
5945;SDS011;2998;48.206;16.394;2022-10-16T13:44:35;1.00;;;1.00;;
5945;SDS011;2998;48.206;16.394;2022-10-16T13:47:04;1.37;;;1.27;;
5945;SDS011;2998;48.206;16.394;2022-10-16T13:49:32;5.23;;;2.63;;
5945;SDS011;2998;48.206;16.394;2022-10-16T13:52:00;3.80;;;1.17;;
5945;SDS011;2998;48.206;16.394;2022-10-16T13:54:29;1.70;;;1.60;;
5945;SDS011;2998;48.206;16.394;2022-10-16T13:57:04;2.53;;;1.60;;
5945;SDS011;2998;48.206;16.394;2022-10-16T13:59:51;2.03;;;1.30;;
5945;SDS011;2998;48.206;16.394;2022-10-16T14:02:22;2.40;;;2.13;;
5945;SDS011;2998;48.206;16.394;2022-10-16T14:04:54;1.50;;;1.40;;
5945;SDS011;2998;48.206;16.394;2022-10-16T14:07:23;2.33;;;1.67;;
5945;SDS011;2998;48.206;16.394;2022-10-16T14:09:54;1.97;;;1.87;;
5945;SDS011;2998;48.206;16.394;2022-10-16T14:12:22;2.10;;;1.93;;
5945;SDS011;2998;48.206;16.394;2022-10-16T14:14:54;3.20;;;2.60;;
5945;SDS011;2998;48.206;16.394;2022-10-16T14:17:23;1.70;;;1.60;;
5945;SDS011;2998;48.206;16.394;2022-10-16T14:19:54;5.77;;;1.73;;
5945;SDS011;2998;48.206;16.394;2022-10-16T14:22:29;6.43;;;3.33;;
5945;SDS011;2998;48.206;16.394;2022-10-16T14:25:00;2.30;;;2.20;;
5945;SDS011;2998;48.206;16.394;2022-10-16T14:27:30;2.27;;;2.17;;
5945;SDS011;2998;48.206;16.394;2022-10-16T14:30:11;9.60;;;2.80;;
5945;SDS011;2998;48.206;16.394;2022-10-16T14:32:41;3.10;;;2.53;;
5945;SDS011;2998;48.206;16.394;2022-10-16T14:35:23;3.03;;;2.57;;
5945;SDS011;2998;48.206;16.394;2022-10-16T14:37:53;2.87;;;2.67;;
5945;SDS011;2998;48.206;16.394;2022-10-16T14:40:23;3.57;;;3.37;;
5945;SDS011;2998;48.206;16.394;2022-10-16T14:42:53;2.57;;;2.47;;
5945;SDS011;2998;48.206;16.394;2022-10-16T14:45:22;8.33;;;3.70;;
5945;SDS011;2998;48.206;16.394;2022-10-16T14:47:53;3.50;;;3.30;;
5945;SDS011;2998;48.206;16.394;2022-10-16T14:50:22;4.07;;;3.63;;
5945;SDS011;2998;48.206;16.394;2022-10-16T14:52:50;7.63;;;4.57;;
5945;SDS011;2998;48.206;16.394;2022-10-16T14:55:18;5.40;;;4.90;;
5945;SDS011;2998;48.206;16.394;2022-10-16T14:57:48;6.60;;;6.10;;
5945;SDS011;2998;48.206;16.394;2022-10-16T15:00:17;5.10;;;4.80;;
5945;SDS011;2998;48.206;16.394;2022-10-16T15:02:47;5.90;;;5.50;;
5945;SDS011;2998;48.206;16.394;2022-10-16T15:05:16;6.67;;;6.10;;
5945;SDS011;2998;48.206;16.394;2022-10-16T15:07:46;7.23;;;6.63;;
5945;SDS011;2998;48.206;16.394;2022-10-16T15:10:15;6.67;;;6.27;;
5945;SDS011;2998;48.206;16.394;2022-10-16T15:12:44;9.03;;;6.70;;
5945;SDS011;2998;48.206;16.394;2022-10-16T15:15:25;7.40;;;6.90;;
5945;SDS011;2998;48.206;16.394;2022-10-16T15:17:57;8.10;;;7.23;;
5945;SDS011;2998;48.206;16.394;2022-10-16T15:20:27;8.23;;;7.63;;
5945;SDS011;2998;48.206;16.394;2022-10-16T15:22:56;8.80;;;8.10;;
5945;SDS011;2998;48.206;16.394;2022-10-16T15:25:29;7.53;;;6.83;;
5945;SDS011;2998;48.206;16.394;2022-10-16T15:27:59;8.00;;;7.40;;
5945;SDS011;2998;48.206;16.394;2022-10-16T15:30:28;8.27;;;7.67;;
5945;SDS011;2998;48.206;16.394;2022-10-16T15:32:56;8.53;;;7.90;;